Time;durP1;ratioP1;P1;durP2;ratioP2;P2;SDS_P1;SDS_P2;PMS_P1;PMS_P2;Temp;Humidity;BMP_temperature;BMP_pressure;BME280_temperature;BME280_humidity;BME280_pressure;Samples;Min_cycle;Max_cycle;Signal;HPM_P1;HPM_P2
2023/04/07 00:00:18;;;;;;;14.95;3.75;;;9.90;99.90;;;;;;5095314;28;20028;-69
2023/04/07 00:02:43;;;;;;;15.65;3.58;;;9.90;99.90;;;;;;5096446;28;20024;-68
2023/04/07 00:05:09;;;;;;;14.45;3.97;;;9.90;99.90;;;;;;5096900;28;20039;-69
2023/04/07 00:07:35;;;;;;;13.20;3.58;;;9.90;99.90;;;;;;5096437;28;20067;-69
2023/04/07 00:10:00;;;;;;;11.43;3.75;;;9.90;99.90;;;;;;5095913;28;20076;-69
2023/04/07 00:12:26;;;;;;;19.10;4.00;;;9.90;99.90;;;;;;5096696;28;20028;-68
2023/04/07 00:14:52;;;;;;;14.10;3.15;;;9.90;99.90;;;;;;5096253;28;20487;-68
2023/04/07 00:17:17;;;;;;;18.00;4.22;;;9.90;99.90;;;;;;5096649;28;20055;-68
2023/04/07 00:19:43;;;;;;;15.77;3.92;;;9.90;99.90;;;;;;5095979;28;20027;-71
2023/04/07 00:22:08;;;;;;;13.85;3.65;;;9.90;99.90;;;;;;5096150;28;20407;-69
2023/04/07 00:24:34;;;;;;;20.33;4.05;;;9.90;99.90;;;;;;5095613;28;20066;-68
2023/04/07 00:27:00;;;;;;;17.83;3.22;;;9.80;99.90;;;;;;5096006;28;20092;-68
2023/04/07 00:29:25;;;;;;;18.92;3.25;;;9.90;99.90;;;;;;5096047;28;20365;-68
2023/04/07 00:31:51;;;;;;;18.55;3.25;;;9.90;99.90;;;;;;5096076;28;20069;-68
2023/04/07 00:34:17;;;;;;;22.42;3.80;;;9.80;99.90;;;;;;5095980;28;20458;-69
2023/04/07 00:36:42;;;;;;;17.50;3.00;;;9.80;99.90;;;;;;5095758;28;20442;-70
2023/04/07 00:39:08;;;;;;;12.60;3.65;;;9.80;99.90;;;;;;5095708;28;20036;-70
2023/04/07 00:41:34;;;;;;;15.95;3.05;;;9.80;99.90;;;;;;5095463;28;20099;-70
2023/04/07 00:44:00;;;;;;;14.00;3.20;;;9.80;99.90;;;;;;5095701;28;20369;-70
2023/04/07 00:46:26;;;;;;;15.15;3.60;;;9.80;99.90;;;;;;5095702;28;20054;-69
2023/04/07 00:48:52;;;;;;;20.75;3.58;;;9.80;99.90;;;;;;5095448;28;20396;-70
2023/04/07 00:51:21;;;;;;;15.32;4.00;;;9.80;99.90;;;;;;5095710;28;20020;-70
2023/04/07 00:53:47;;;;;;;17.75;3.42;;;9.80;99.90;;;;;;5094968;28;20035;-70
2023/04/07 00:56:13;;;;;;;18.05;3.42;;;9.80;99.90;;;;;;5095482;28;20471;-70
2023/04/07 00:58:39;;;;;;;14.75;3.38;;;9.80;99.90;;;;;;5095464;28;20031;-70
2023/04/07 01:01:14;;;;;;;23.67;3.67;;;9.80;99.90;;;;;;5095906;28;20035;-70
2023/04/07 01:03:55;;;;;;;18.73;3.90;;;9.80;99.90;;;;;;5095332;28;20035;-70
2023/04/07 01:06:25;;;;;;;20.53;3.70;;;9.80;99.90;;;;;;5095493;28;20032;-70
2023/04/07 01:09:00;;;;;;;19.63;3.92;;;9.80;99.90;;;;;;5088310;28;20020;-69
2023/04/07 01:12:02;;;;;;;13.88;4.22;;;9.80;99.90;;;;;;5075081;28;20051;-70
2023/04/07 01:14:31;;;;;;;16.92;4.95;;;9.80;99.90;;;;;;5074515;28;20040;-70
2023/04/07 01:17:01;;;;;;;17.92;3.35;;;9.90;99.90;;;;;;5074903;28;20059;-70
2023/04/07 01:19:39;;;;;;;26.15;7.82;;;9.90;99.90;;;;;;5074589;28;20028;-70
2023/04/07 01:22:11;;;;;;;30.98;10.35;;;9.90;99.90;;;;;;5074459;28;20411;-71
2023/04/07 01:25:03;;;;;;;;;;;9.80;99.90;;;;;;5075373;28;20036;-70
2023/04/07 01:27:38;;;;;;;19.10;5.30;;;9.90;99.90;;;;;;5071609;28;19948;-70
2023/04/07 01:30:09;;;;;;;21.58;5.00;;;9.80;99.90;;;;;;5074567;28;20063;-70
2023/04/07 01:32:36;;;;;;;18.73;3.97;;;9.90;99.90;;;;;;5078067;28;20028;-70
2023/04/07 01:35:05;;;;;;;23.80;5.45;;;9.90;99.90;;;;;;5094738;28;20051;-70
2023/04/07 01:37:32;;;;;;;21.00;5.38;;;9.90;99.90;;;;;;5094456;28;20035;-70
2023/04/07 01:39:57;;;;;;;24.02;3.97;;;9.90;99.90;;;;;;5094411;28;20535;-70
2023/04/07 01:42:25;;;;;;;21.85;4.32;;;9.90;99.90;;;;;;5094744;28;20116;-69
2023/04/07 01:44:51;;;;;;;19.10;4.30;;;9.90;99.90;;;;;;5094612;28;20067;-70
2023/04/07 01:47:17;;;;;;;19.70;3.97;;;9.90;99.90;;;;;;5094273;28;20028;-69
2023/04/07 01:49:45;;;;;;;25.35;5.53;;;9.90;99.90;;;;;;5094470;28;20024;-69
2023/04/07 01:52:11;;;;;;;14.00;3.80;;;9.90;99.90;;;;;;5094735;28;20448;-70
2023/04/07 01:54:38;;;;;;;25.52;5.18;;;9.90;99.90;;;;;;5093963;28;20067;-70
2023/04/07 01:57:04;;;;;;;22.98;5.65;;;9.90;99.90;;;;;;5094379;28;20040;-70
2023/04/07 01:59:30;;;;;;;25.40;7.97;;;9.90;99.90;;;;;;5093476;28;20124;-70
2023/04/07 02:01:55;;;;;;;26.80;8.15;;;9.90;99.90;;;;;;5094270;28;20448;-70
2023/04/07 02:04:31;;;;;;;16.95;4.50;;;9.90;99.90;;;;;;5094032;28;20038;-70
2023/04/07 02:07:05;;;;;;;19.13;4.03;;;9.90;99.90;;;;;;5094249;28;20051;-69
2023/04/07 02:09:31;;;;;;;18.02;4.38;;;9.90;99.90;;;;;;5081463;28;20044;-70
2023/04/07 02:12:00;;;;;;;21.52;4.47;;;9.90;99.90;;;;;;5073878;28;20447;-70
2023/04/07 02:14:27;;;;;;;20.15;4.50;;;9.90;99.90;;;;;;5073533;28;20064;-70
2023/04/07 02:16:54;;;;;;;22.95;7.20;;;9.90;99.90;;;;;;5073224;28;20485;-70
2023/04/07 02:19:20;;;;;;;17.70;3.80;;;9.90;99.90;;;;;;5073672;28;20028;-70
2023/04/07 02:21:47;;;;;;;23.38;7.35;;;9.90;99.90;;;;;;5073465;28;20024;-70
2023/04/07 02:24:13;;;;;;;22.65;5.72;;;9.90;99.90;;;;;;5073568;28;20024;-71
2023/04/07 02:26:38;;;;;;;18.85;3.90;;;9.90;99.90;;;;;;5073149;28;20052;-70
2023/04/07 02:29:04;;;;;;;18.92;5.05;;;9.90;99.90;;;;;;5073539;28;20100;-70
2023/04/07 02:31:30;;;;;;;15.25;5.00;;;9.90;99.90;;;;;;5072973;28;20032;-71
2023/04/07 02:33:56;;;;;;;15.13;4.57;;;9.90;99.90;;;;;;5073273;28;20078;-70
2023/04/07 02:36:22;;;;;;;18.73;5.40;;;9.90;99.90;;;;;;5073479;28;20056;-70
2023/04/07 02:38:47;;;;;;;9.55;3.50;;;9.90;99.90;;;;;;5073399;28;20075;-70
2023/04/07 02:41:13;;;;;;;15.20;4.20;;;9.90;99.90;;;;;;5072010;28;20035;-70
2023/04/07 02:43:38;;;;;;;12.05;3.33;;;9.90;99.90;;;;;;5073315;28;20032;-70
2023/04/07 02:46:04;;;;;;;16.88;4.28;;;9.90;99.90;;;;;;5072901;28;20033;-69
2023/04/07 02:48:29;;;;;;;14.77;4.35;;;9.90;99.90;;;;;;5073119;28;20543;-70
2023/04/07 02:50:55;;;;;;;16.73;4.70;;;9.80;99.90;;;;;;5073315;28;20035;-70
2023/04/07 02:53:21;;;;;;;15.55;5.07;;;9.90;99.90;;;;;;5072957;28;20024;-70
2023/04/07 02:55:46;;;;;;;20.13;6.75;;;9.80;99.90;;;;;;5073075;28;20106;-70
2023/04/07 02:58:12;;;;;;;17.70;5.13;;;9.80;99.90;;;;;;5073056;28;20020;-70
2023/04/07 03:00:37;;;;;;;12.68;3.42;;;9.80;99.90;;;;;;5072813;28;20055;-71
2023/04/07 03:03:03;;;;;;;19.20;5.55;;;9.80;99.90;;;;;;5073134;28;20025;-70
2023/04/07 03:05:28;;;;;;;26.45;8.50;;;9.80;99.90;;;;;;5072996;28;20082;-69
2023/04/07 03:07:54;;;;;;;12.43;4.28;;;9.80;99.90;;;;;;5073227;28;20039;-70
2023/04/07 03:10:19;;;;;;;21.88;6.93;;;9.80;99.90;;;;;;5091722;28;20375;-69
2023/04/07 03:12:45;;;;;;;17.25;5.43;;;9.80;99.90;;;;;;5092691;28;20026;-69
2023/04/07 03:15:10;;;;;;;20.15;4.40;;;9.80;99.90;;;;;;5092751;28;20047;-69
2023/04/07 03:17:36;;;;;;;14.55;5.18;;;9.80;99.90;;;;;;5093343;28;20039;-69
2023/04/07 03:20:02;;;;;;;13.25;3.92;;;9.80;99.90;;;;;;5093148;28;20024;-69
2023/04/07 03:22:27;;;;;;;9.10;2.97;;;9.80;99.90;;;;;;5093331;28;20020;-69
2023/04/07 03:24:53;;;;;;;17.73;4.90;;;9.80;99.90;;;;;;5092832;28;20495;-69
2023/04/07 03:27:19;;;;;;;15.65;3.75;;;9.80;99.90;;;;;;5093000;28;20460;-69
2023/04/07 03:29:45;;;;;;;14.95;3.80;;;9.80;99.90;;;;;;5092867;28;20028;-69
2023/04/07 03:32:11;;;;;;;11.80;2.85;;;9.70;99.90;;;;;;5092891;28;20472;-69
2023/04/07 03:34:37;;;;;;;12.60;3.08;;;9.80;99.90;;;;;;5093023;28;20042;-69
2023/04/07 03:37:02;;;;;;;10.82;3.47;;;9.80;99.90;;;;;;5092826;28;20031;-69
2023/04/07 03:39:28;;;;;;;10.32;3.38;;;9.80;99.90;;;;;;5091493;28;20024;-69
2023/04/07 03:41:53;;;;;;;14.20;4.28;;;9.70;99.90;;;;;;5092789;28;20024;-69
2023/04/07 03:44:19;;;;;;;10.95;3.00;;;9.70;99.90;;;;;;5092791;28;20111;-69
2023/04/07 03:46:45;;;;;;;8.82;2.42;;;9.70;99.90;;;;;;5092415;28;20056;-69
2023/04/07 03:49:11;;;;;;;13.45;3.58;;;9.70;99.90;;;;;;5092929;28;20024;-69
2023/04/07 03:51:36;;;;;;;14.13;3.00;;;9.70;99.90;;;;;;5092828;28;20376;-69
2023/04/07 03:54:02;;;;;;;24.23;8.20;;;9.70;99.90;;;;;;5092852;28;20028;-69
2023/04/07 03:56:28;;;;;;;22.88;6.40;;;9.70;99.90;;;;;;5092968;28;20024;-69
2023/04/07 03:58:54;;;;;;;18.92;6.35;;;9.70;99.90;;;;;;5092779;28;20544;-69
2023/04/07 04:01:19;;;;;;;18.65;5.03;;;9.70;99.90;;;;;;5092599;28;20032;-69
2023/04/07 04:03:45;;;;;;;13.70;3.78;;;9.80;99.90;;;;;;5093273;28;20028;-68
2023/04/07 04:06:11;;;;;;;16.95;5.85;;;9.80;99.90;;;;;;5092968;28;20024;-68
2023/04/07 04:08:36;;;;;;;15.20;3.65;;;9.80;99.90;;;;;;5087940;28;20055;-68
2023/04/07 04:11:02;;;;;;;17.27;4.85;;;9.80;99.90;;;;;;5072780;28;20047;-69
2023/04/07 04:13:27;;;;;;;14.60;3.47;;;9.80;99.90;;;;;;5073116;28;20365;-69
2023/04/07 04:15:53;;;;;;;15.63;3.60;;;9.80;99.90;;;;;;5072817;28;20399;-68
2023/04/07 04:18:19;;;;;;;13.90;4.28;;;9.90;99.90;;;;;;5072607;28;20479;-69
2023/04/07 04:20:44;;;;;;;16.55;3.95;;;9.80;99.90;;;;;;5072731;28;20035;-68
2023/04/07 04:23:10;;;;;;;15.18;4.00;;;9.90;99.90;;;;;;5075036;28;20418;-69
2023/04/07 04:25:38;;;;;;;18.05;3.13;;;9.90;99.90;;;;;;5075847;28;20099;-69
2023/04/07 04:28:04;;;;;;;13.00;3.55;;;9.90;99.90;;;;;;5076156;28;20039;-69
2023/04/07 04:30:30;;;;;;;17.05;4.15;;;9.90;99.90;;;;;;5076088;28;20487;-69
2023/04/07 04:32:55;;;;;;;12.13;3.25;;;9.80;99.90;;;;;;5076434;28;20020;-68
2023/04/07 04:35:21;;;;;;;10.07;2.78;;;9.80;99.90;;;;;;5076282;28;20045;-69
2023/04/07 04:37:47;;;;;;;13.43;2.70;;;9.80;99.90;;;;;;5076164;28;20035;-69
2023/04/07 04:40:13;;;;;;;10.55;2.72;;;9.80;99.90;;;;;;5075804;28;20021;-69
2023/04/07 04:42:39;;;;;;;11.73;3.22;;;9.80;99.90;;;;;;5075724;28;20048;-69
2023/04/07 04:45:05;;;;;;;9.88;3.03;;;9.80;99.90;;;;;;5075461;28;20079;-68
2023/04/07 04:47:31;;;;;;;13.25;2.97;;;9.80;99.90;;;;;;5076134;28;20028;-68
2023/04/07 04:49:56;;;;;;;12.10;2.70;;;9.80;99.90;;;;;;5075873;28;20517;-69
2023/04/07 04:52:22;;;;;;;16.15;4.18;;;9.80;99.90;;;;;;5075828;28;20036;-68
2023/04/07 04:54:47;;;;;;;13.07;2.30;;;9.80;99.90;;;;;;5075455;28;20431;-68
2023/04/07 04:57:13;;;;;;;13.52;3.53;;;9.80;99.90;;;;;;5075331;28;20460;-68
2023/04/07 04:59:38;;;;;;;12.23;2.42;;;9.80;99.90;;;;;;5075164;28;20032;-68
2023/04/07 05:02:04;;;;;;;18.02;3.50;;;9.80;99.90;;;;;;5088792;28;20064;-68
2023/04/07 05:04:30;;;;;;;11.80;3.08;;;9.80;99.90;;;;;;5095696;28;20028;-69
2023/04/07 05:06:56;;;;;;;13.55;2.85;;;9.80;99.90;;;;;;5094497;28;20040;-68
2023/04/07 05:09:21;;;;;;;16.58;3.15;;;9.80;99.90;;;;;;5095697;28;20089;-69
2023/04/07 05:11:47;;;;;;;19.55;3.58;;;9.80;99.90;;;;;;5095425;28;20422;-71
2023/04/07 05:14:13;;;;;;;14.82;2.67;;;9.80;99.90;;;;;;5095162;28;20040;-70
2023/04/07 05:16:38;;;;;;;19.60;3.55;;;9.80;99.90;;;;;;5095664;28;20035;-70
2023/04/07 05:19:04;;;;;;;13.68;3.13;;;9.90;99.90;;;;;;5095567;28;20107;-68
2023/04/07 05:21:30;;;;;;;11.02;2.15;;;9.90;99.90;;;;;;5095395;28;20028;-70
2023/04/07 05:23:55;;;;;;;15.32;2.13;;;9.90;99.90;;;;;;5095383;28;20527;-67
2023/04/07 05:26:21;;;;;;;17.15;2.90;;;9.90;99.90;;;;;;5094406;28;20131;-67
2023/04/07 05:28:46;;;;;;;20.77;2.92;;;9.90;99.90;;;;;;5092904;28;20052;-68
2023/04/07 05:31:12;;;;;;;16.45;3.22;;;9.90;99.90;;;;;;5093688;28;20099;-68
2023/04/07 05:33:37;;;;;;;19.27;2.95;;;9.90;99.90;;;;;;5092446;28;20107;-69
2023/04/07 05:36:03;;;;;;;13.48;2.38;;;9.90;99.90;;;;;;5093309;28;20475;-69
2023/04/07 05:38:29;;;;;;;16.02;2.45;;;9.90;99.90;;;;;;5093534;28;20060;-68
2023/04/07 05:40:54;;;;;;;14.63;2.22;;;9.90;99.90;;;;;;5092868;28;20430;-69
2023/04/07 05:43:20;;;;;;;11.13;2.50;;;9.90;99.90;;;;;;5093010;28;20056;-69
2023/04/07 05:45:46;;;;;;;18.40;2.65;;;9.90;99.90;;;;;;5093199;28;20034;-68
2023/04/07 05:48:12;;;;;;;22.83;2.95;;;10.00;99.90;;;;;;5092099;28;20372;-68
2023/04/07 05:50:37;;;;;;;21.10;3.75;;;10.00;99.90;;;;;;5090823;28;20036;-68
2023/04/07 05:53:03;;;;;;;16.10;3.00;;;10.00;99.90;;;;;;5088168;28;20364;-69
2023/04/07 05:55:28;;;;;;;22.92;6.18;;;10.00;99.90;;;;;;5082164;28;20070;-69
2023/04/07 05:57:54;;;;;;;19.88;4.40;;;10.10;99.90;;;;;;5094164;28;20031;-68
2023/04/07 06:00:20;;;;;;;19.42;4.38;;;10.10;99.90;;;;;;5094046;28;20044;-69
2023/04/07 06:02:45;;;;;;;19.30;4.38;;;10.10;99.90;;;;;;5094164;28;20039;-69
2023/04/07 06:05:11;;;;;;;19.08;4.25;;;10.20;99.90;;;;;;5094162;28;20030;-69
2023/04/07 06:07:37;;;;;;;19.13;2.55;;;10.20;99.90;;;;;;5090152;28;20107;-69
2023/04/07 06:10:02;;;;;;;18.33;4.88;;;10.30;99.90;;;;;;5080849;28;20047;-69
2023/04/07 06:12:28;;;;;;;9.75;2.85;;;10.30;99.90;;;;;;5093602;28;20024;-69
2023/04/07 06:14:54;;;;;;;27.45;8.05;;;10.30;99.90;;;;;;5093658;28;20395;-69
2023/04/07 06:17:21;;;;;;;14.65;3.97;;;10.30;99.90;;;;;;5093663;28;20067;-69
2023/04/07 06:19:46;;;;;;;18.48;4.43;;;10.40;99.90;;;;;;5093864;28;20024;-69
2023/04/07 06:22:12;;;;;;;24.15;5.93;;;10.40;99.90;;;;;;5089115;28;20132;-69
2023/04/07 06:24:37;;;;;;;9.48;3.78;;;10.40;99.90;;;;;;5085746;28;20024;-69
2023/04/07 06:27:03;;;;;;;14.35;4.20;;;10.40;99.90;;;;;;5093694;28;20469;-69
2023/04/07 06:29:29;;;;;;;20.88;7.13;;;10.40;99.90;;;;;;5093774;28;20536;-69
2023/04/07 06:31:55;;;;;;;18.15;4.25;;;10.40;99.90;;;;;;5093646;28;20032;-69
2023/04/07 06:34:20;;;;;;;12.35;2.72;;;10.40;99.90;;;;;;5093357;28;20054;-69
2023/04/07 06:36:46;;;;;;;12.48;2.45;;;10.40;99.90;;;;;;5093647;28;20369;-70
2023/04/07 06:39:11;;;;;;;11.52;3.22;;;10.40;99.90;;;;;;5093531;28;20032;-69
2023/04/07 06:41:37;;;;;;;18.00;7.03;;;10.50;99.90;;;;;;5092998;28;20016;-70
2023/04/07 06:44:03;;;;;;;17.27;5.22;;;10.60;99.90;;;;;;5093712;28;20024;-69
2023/04/07 06:46:29;;;;;;;17.65;5.75;;;10.60;99.90;;;;;;5093424;28;20025;-70
2023/04/07 06:48:55;;;;;;;11.63;3.95;;;10.70;99.90;;;;;;5093595;28;20034;-69
2023/04/07 06:51:20;;;;;;;13.48;4.13;;;10.70;99.90;;;;;;5093439;28;20028;-70
2023/04/07 06:53:47;;;;;;;13.18;3.25;;;10.70;99.90;;;;;;5093304;28;20464;-69
2023/04/07 06:56:14;;;;;;;19.83;6.15;;;10.70;99.90;;;;;;5093350;28;20032;-69
2023/04/07 06:58:39;;;;;;;15.57;5.07;;;10.80;99.90;;;;;;5093447;28;20085;-69
2023/04/07 07:01:05;;;;;;;19.67;6.70;;;10.80;99.90;;;;;;5093308;28;20028;-69
2023/04/07 07:03:31;;;;;;;18.80;5.80;;;10.90;99.90;;;;;;5093108;28;20024;-69
2023/04/07 07:05:58;;;;;;;12.77;3.05;;;10.90;99.90;;;;;;5093119;28;20032;-69
2023/04/07 07:08:25;;;;;;;15.38;3.40;;;10.90;99.90;;;;;;5092864;28;20525;-69
2023/04/07 07:10:51;;;;;;;18.13;6.65;;;11.00;99.90;;;;;;5093133;28;20082;-69
2023/04/07 07:13:18;;;;;;;11.63;3.17;;;11.00;99.90;;;;;;5093693;28;20046;-69
2023/04/07 07:15:44;;;;;;;19.25;6.10;;;11.00;99.90;;;;;;5093273;28;20032;-69
2023/04/07 07:18:11;;;;;;;11.88;3.80;;;11.00;99.90;;;;;;5093102;28;20075;-68
2023/04/07 07:20:37;;;;;;;17.30;5.13;;;11.10;99.90;;;;;;5093229;28;20039;-69
2023/04/07 07:23:02;;;;;;;13.80;3.88;;;11.10;99.90;;;;;;5093144;28;20024;-69
2023/04/07 07:25:28;;;;;;;17.08;5.13;;;11.20;99.90;;;;;;5093015;28;20036;-69
2023/04/07 07:27:53;;;;;;;20.95;7.15;;;11.30;99.90;;;;;;5093503;28;20028;-69
2023/04/07 07:30:20;;;;;;;19.30;5.18;;;11.30;99.90;;;;;;5093318;28;20039;-70
2023/04/07 07:32:46;;;;;;;21.25;6.15;;;11.40;99.90;;;;;;5093108;28;20111;-69
2023/04/07 07:35:12;;;;;;;22.50;6.28;;;11.40;99.90;;;;;;5092943;28;20131;-69
2023/04/07 07:37:38;;;;;;;21.95;4.32;;;11.40;99.90;;;;;;5093077;28;20056;-69
2023/04/07 07:40:03;;;;;;;13.40;2.70;;;11.40;99.90;;;;;;5092848;28;20032;-69
2023/04/07 07:42:30;;;;;;;13.80;2.60;;;11.40;99.90;;;;;;5093035;28;20028;-69
2023/04/07 07:44:56;;;;;;;13.40;3.38;;;11.40;99.90;;;;;;5091586;28;20388;-69
2023/04/07 07:47:22;;;;;;;19.55;4.47;;;11.50;99.90;;;;;;5092884;28;20032;-69
2023/04/07 07:49:48;;;;;;;15.43;3.38;;;11.60;99.90;;;;;;5092689;28;20074;-69
2023/04/07 07:52:13;;;;;;;13.93;3.13;;;11.70;99.90;;;;;;5092917;28;20024;-69
2023/04/07 07:54:39;;;;;;;17.77;3.35;;;11.80;99.90;;;;;;5092979;28;20036;-69
2023/04/07 07:57:05;;;;;;;14.20;3.47;;;11.90;99.90;;;;;;5093873;28;20067;-69
2023/04/07 07:59:31;;;;;;;13.07;2.95;;;11.90;99.90;;;;;;5096799;28;20437;-69
2023/04/07 08:01:57;;;;;;;21.27;4.50;;;12.00;99.90;;;;;;5096692;28;20032;-69
2023/04/07 08:04:23;;;;;;;14.05;3.03;;;12.00;99.90;;;;;;5096261;28;20039;-69
2023/04/07 08:06:50;;;;;;;7.55;2.20;;;12.10;99.90;;;;;;5096539;28;20067;-69
2023/04/07 08:09:16;;;;;;;12.75;3.00;;;12.10;99.90;;;;;;5095946;28;20104;-69
2023/04/07 08:11:42;;;;;;;16.05;3.38;;;12.20;99.90;;;;;;5096686;28;20035;-69
2023/04/07 08:14:08;;;;;;;13.80;2.92;;;12.30;99.90;;;;;;5096447;28;20028;-69
2023/04/07 08:16:33;;;;;;;17.45;2.78;;;12.30;99.90;;;;;;5096294;28;20372;-69
2023/04/07 08:18:59;;;;;;;13.98;3.40;;;12.30;99.90;;;;;;5096589;28;20111;-69
2023/04/07 08:21:26;;;;;;;18.63;3.50;;;12.30;99.90;;;;;;5096175;28;20046;-68
2023/04/07 08:23:52;;;;;;;9.75;2.67;;;12.30;99.90;;;;;;5096490;28;20027;-69
2023/04/07 08:26:18;;;;;;;11.82;3.15;;;12.30;99.90;;;;;;5096129;28;20106;-69
2023/04/07 08:28:44;;;;;;;12.75;2.40;;;12.30;99.90;;;;;;5096276;28;20040;-69
2023/04/07 08:31:09;;;;;;;12.98;3.03;;;12.40;99.90;;;;;;5094401;28;20035;-69
2023/04/07 08:33:35;;;;;;;18.25;2.50;;;12.50;99.90;;;;;;5094555;28;20023;-68
2023/04/07 08:36:00;;;;;;;10.13;2.53;;;12.50;99.90;;;;;;5094977;28;20051;-69
2023/04/07 08:38:26;;;;;;;10.05;2.00;;;12.50;99.90;;;;;;5095761;28;20020;-69
2023/04/07 08:41:10;;;;;;;16.88;2.55;;;12.50;99.90;;;;;;5095919;28;20023;-69
2023/04/07 08:43:38;;;;;;;17.45;2.83;;;12.40;99.90;;;;;;5096003;28;20399;-69
2023/04/07 08:46:04;;;;;;;7.00;2.08;;;12.30;99.90;;;;;;5095986;28;20036;-69
2023/04/07 08:48:34;;;;;;;13.60;3.20;;;12.30;99.90;;;;;;5095663;28;20027;-69
2023/04/07 08:51:07;;;;;;;14.70;2.83;;;12.30;99.90;;;;;;5096079;28;20042;-69
2023/04/07 08:53:53;;;;;;;12.50;4.05;;;12.30;99.90;;;;;;5095999;28;20028;-69
2023/04/07 08:56:22;;;;;;;17.00;3.25;;;12.40;99.90;;;;;;5095936;28;20060;-69
2023/04/07 08:58:48;;;;;;;19.50;3.65;;;12.40;99.90;;;;;;5095362;28;20028;-69
2023/04/07 09:01:15;;;;;;;17.02;3.67;;;12.30;99.90;;;;;;5095348;28;20464;-69
2023/04/07 09:03:43;;;;;;;15.82;3.53;;;12.30;99.90;;;;;;5094056;28;20040;-69
2023/04/07 09:06:10;;;;;;;27.77;6.60;;;12.30;99.90;;;;;;5095474;28;20035;-69
2023/04/07 09:08:35;;;;;;;17.95;4.68;;;12.30;99.90;;;;;;5095119;28;20377;-69
2023/04/07 09:11:01;;;;;;;17.65;4.72;;;12.30;99.90;;;;;;5094022;28;20038;-69
2023/04/07 09:13:27;;;;;;;21.85;4.13;;;12.40;99.90;;;;;;5095148;28;20031;-69
2023/04/07 09:15:53;;;;;;;18.95;4.22;;;12.40;99.90;;;;;;5095307;28;20071;-69
2023/04/07 09:18:18;;;;;;;17.83;4.68;;;12.40;99.90;;;;;;5095542;28;20108;-69
2023/04/07 09:20:55;;;;;;;26.13;6.63;;;12.50;99.90;;;;;;5095495;28;20483;-69
2023/04/07 09:23:34;;;;;;;17.83;3.60;;;12.60;99.90;;;;;;5088722;28;20084;-69
2023/04/07 09:26:17;;;;;;;19.70;3.92;;;12.70;99.90;;;;;;5080226;28;20131;-69
2023/04/07 09:28:44;;;;;;;16.65;4.05;;;12.90;99.90;;;;;;5087347;28;20032;-69
2023/04/07 09:31:10;;;;;;;18.88;5.25;;;13.00;99.90;;;;;;5081123;28;20060;-69
2023/04/07 09:33:36;;;;;;;16.58;4.25;;;13.10;99.90;;;;;;5074337;28;20059;-69
2023/04/07 09:36:05;;;;;;;23.90;3.85;;;13.10;99.90;;;;;;5074204;28;20442;-69
2023/04/07 09:38:39;;;;;;;20.45;5.28;;;13.20;99.90;;;;;;5078037;28;20164;-69
2023/04/07 09:41:11;;;;;;;14.35;3.70;;;13.30;99.90;;;;;;5094874;28;20039;-69
2023/04/07 09:43:40;;;;;;;21.63;5.68;;;13.40;99.90;;;;;;5094601;28;20020;-69
2023/04/07 09:46:14;;;;;;;15.48;4.18;;;13.40;99.90;;;;;;5094724;28;20035;-69
2023/04/07 09:48:41;;;;;;;14.13;2.88;;;13.60;99.90;;;;;;5094732;28;20043;-69
2023/04/07 09:51:17;;;;;;;18.88;7.07;;;13.70;99.90;;;;;;5094695;28;20066;-69
2023/04/07 09:53:50;;;;;;;21.20;6.35;;;13.90;99.90;;;;;;5094672;28;20024;-70
2023/04/07 09:56:18;;;;;;;16.52;5.03;;;14.00;99.90;;;;;;5091568;28;20032;-69
2023/04/07 09:58:45;;;;;;;16.20;3.33;;;14.10;99.90;;;;;;5094432;28;20032;-69
2023/04/07 10:01:12;;;;;;;21.45;4.18;;;14.20;99.90;;;;;;5094430;28;20028;-69
2023/04/07 10:03:38;;;;;;;15.52;4.15;;;14.30;99.90;;;;;;5094064;28;20035;-69
2023/04/07 10:06:05;;;;;;;21.35;3.78;;;14.50;99.90;;;;;;5094274;28;20031;-69
2023/04/07 10:08:33;;;;;;;13.05;3.75;;;14.60;99.90;;;;;;5094208;28;20032;-69
2023/04/07 10:11:03;;;;;;;13.23;4.53;;;14.70;99.90;;;;;;5094078;28;20472;-70
2023/04/07 10:13:30;;;;;;;19.55;3.38;;;14.70;99.90;;;;;;5094139;28;20117;-69
2023/04/07 10:15:57;;;;;;;20.63;4.72;;;14.70;99.90;;;;;;5094122;28;20071;-70
2023/04/07 10:18:29;;;;;;;18.90;4.53;;;14.80;99.90;;;;;;5091889;28;20035;-70
2023/04/07 10:20:55;;;;;;;13.98;3.38;;;14.90;99.90;;;;;;5093758;28;20032;-70
2023/04/07 10:23:27;;;;;;;17.08;3.05;;;15.00;99.90;;;;;;5094169;28;20047;-70
2023/04/07 10:25:57;;;;;;;18.58;4.80;;;14.80;99.90;;;;;;5093977;28;20036;-70
2023/04/07 10:28:24;;;;;;;15.60;3.42;;;14.70;99.90;;;;;;5081509;28;20035;-70
2023/04/07 10:30:51;;;;;;;17.45;2.45;;;14.50;99.90;;;;;;5085910;28;20099;-69
2023/04/07 10:33:17;;;;;;;18.60;3.00;;;14.40;99.90;;;;;;5093716;28;20020;-69
2023/04/07 10:36:03;;;;;;;20.35;4.13;;;14.40;99.90;;;;;;5093843;28;20038;-70
2023/04/07 10:38:30;;;;;;;20.13;5.75;;;14.40;99.90;;;;;;5093583;28;20536;-69
2023/04/07 10:40:56;;;;;;;20.90;4.65;;;14.40;99.90;;;;;;5093249;28;20080;-70
2023/04/07 10:43:40;;;;;;;23.65;6.45;;;14.30;99.90;;;;;;5093169;28;20107;-70
2023/04/07 10:46:06;;;;;;;24.38;5.57;;;14.30;99.90;;;;;;5093715;28;20090;-70
2023/04/07 10:48:32;;;;;;;21.67;5.28;;;14.30;99.90;;;;;;5094209;28;20452;-70
2023/04/07 10:51:04;;;;;;;19.00;3.58;;;14.30;99.90;;;;;;5093693;28;20024;-70
2023/04/07 10:53:30;;;;;;;20.42;5.13;;;14.20;99.90;;;;;;5093761;28;20031;-70
2023/04/07 10:55:56;;;;;;;17.15;3.28;;;14.10;99.90;;;;;;5093004;28;20109;-70
2023/04/07 10:58:23;;;;;;;23.58;4.22;;;14.10;99.90;;;;;;5093082;28;20028;-70
2023/04/07 11:01:06;;;;;;;19.73;4.47;;;14.00;99.90;;;;;;5093156;28;20065;-70
2023/04/07 11:03:34;;;;;;;15.48;3.00;;;14.00;99.90;;;;;;5093335;28;20063;-70
2023/04/07 11:06:07;;;;;;;18.92;3.28;;;14.10;99.90;;;;;;5092269;28;20027;-70
2023/04/07 11:08:38;;;;;;;12.20;3.28;;;14.00;99.90;;;;;;5092869;28;20082;-70
2023/04/07 11:11:08;;;;;;;16.23;3.60;;;13.90;99.90;;;;;;5093325;28;20113;-70
2023/04/07 11:13:43;;;;;;;19.88;3.38;;;13.90;99.90;;;;;;5092947;28;20024;-70
2023/04/07 11:16:10;;;;;;;16.90;3.15;;;13.90;99.90;;;;;;5093312;28;20032;-70
2023/04/07 11:18:36;;;;;;;18.27;3.40;;;13.80;99.90;;;;;;5093077;28;20051;-70
2023/04/07 11:21:02;;;;;;;16.00;3.03;;;13.70;99.90;;;;;;5092979;28;20462;-70
2023/04/07 11:23:28;;;;;;;20.13;3.47;;;13.60;99.90;;;;;;5093257;28;20112;-69
2023/04/07 11:26:00;;;;;;;18.33;4.18;;;13.50;99.90;;;;;;5092769;28;20074;-69
2023/04/07 11:28:26;;;;;;;18.48;2.97;;;13.30;99.90;;;;;;5092369;28;20031;-70
2023/04/07 11:30:53;;;;;;;18.10;3.13;;;13.30;99.90;;;;;;5092341;28;20028;-68
2023/04/07 11:33:24;;;;;;;17.65;3.47;;;13.30;99.90;;;;;;5094029;28;20081;-68
2023/04/07 11:35:57;;;;;;;16.65;3.00;;;13.40;99.90;;;;;;5095689;28;20036;-68
2023/04/07 11:38:26;;;;;;;16.73;3.72;;;13.40;99.90;;;;;;5095802;28;20032;-71
2023/04/07 11:40:52;;;;;;;16.67;3.30;;;13.40;99.90;;;;;;5095684;28;20036;-70
2023/04/07 11:43:21;;;;;;;15.80;3.38;;;13.40;99.90;;;;;;5095706;28;20117;-70
2023/04/07 11:46:09;;;;;;;18.95;3.30;;;13.40;99.90;;;;;;5095162;28;20107;-70
2023/04/07 11:48:36;;;;;;;18.73;3.40;;;13.30;99.90;;;;;;5082247;28;20115;-70
2023/04/07 11:51:02;;;;;;;18.83;3.53;;;13.30;99.90;;;;;;5095460;28;20032;-70
2023/04/07 11:53:37;;;;;;;16.80;3.08;;;13.20;99.90;;;;;;5095984;28;20031;-70
2023/04/07 11:56:08;;;;;;;16.65;3.38;;;13.10;99.90;;;;;;5095557;28;20036;-70
2023/04/07 11:58:38;;;;;;;14.48;3.10;;;13.10;99.90;;;;;;5095686;28;20049;-70
2023/04/07 12:01:07;;;;;;;22.10;3.38;;;13.20;99.90;;;;;;5082588;28;20536;-70
2023/04/07 12:03:34;;;;;;;21.73;4.55;;;13.30;99.90;;;;;;5075062;28;20032;-70
2023/04/07 12:06:01;;;;;;;13.05;2.67;;;13.30;99.90;;;;;;5074930;28;20504;-70
2023/04/07 12:08:41;;;;;;;14.27;3.08;;;13.20;99.90;;;;;;5074977;28;20029;-68
2023/04/07 12:11:08;;;;;;;14.57;2.65;;;13.00;99.90;;;;;;5075036;28;20574;-70
2023/04/07 12:13:34;;;;;;;18.23;2.67;;;13.00;99.90;;;;;;5075122;28;20372;-70
2023/04/07 12:16:00;;;;;;;19.05;2.83;;;12.90;99.90;;;;;;5074989;28;20033;-70
2023/04/07 12:18:27;;;;;;;16.67;3.10;;;13.00;99.90;;;;;;5074938;28;20357;-70
2023/04/07 12:20:53;;;;;;;11.75;2.88;;;13.10;99.90;;;;;;5075150;28;20038;-70
2023/04/07 12:23:18;;;;;;;16.60;2.70;;;13.20;99.90;;;;;;5075270;28;20091;-71
2023/04/07 12:25:44;;;;;;;14.25;2.58;;;13.20;99.90;;;;;;5037553;28;1069922;-68
2023/04/07 12:28:10;;;;;;;18.83;3.08;;;13.40;99.90;;;;;;5075171;28;20125;-68
2023/04/07 12:30:35;;;;;;;12.68;2.78;;;13.60;99.90;;;;;;5076112;28;20039;-68
2023/04/07 12:33:02;;;;;;;9.10;2.45;;;13.70;99.90;;;;;;5075618;28;20035;-68
2023/04/07 12:35:29;;;;;;;14.80;2.45;;;13.60;99.90;;;;;;5075629;28;20087;-69
2023/04/07 12:37:55;;;;;;;19.80;3.35;;;13.70;99.90;;;;;;5075328;28;20112;-70
2023/04/07 12:40:21;;;;;;;14.88;2.60;;;13.70;99.90;;;;;;5075923;28;20028;-69
2023/04/07 12:42:47;;;;;;;16.42;2.55;;;13.80;99.90;;;;;;5075226;28;20020;-69